Time;durP1;ratioP1;P1;durP2;ratioP2;P2;SDS_P1;SDS_P2;PMS_P1;PMS_P2;Temp;Humidity;BMP_temperature;BMP_pressure;BME280_temperature;BME280_humidity;BME280_pressure;Samples;Min_cycle;Max_cycle;Signal;HPM_P1;HPM_P2
2021/01/09 00:01:59;;;;;;;;;;;27.90;38.10;;;;;;5092634;28;20278;-61
2021/01/09 00:04:25;;;;;;;;;;;27.90;38.00;;;;;;5094782;28;19919;-62
2021/01/09 00:06:50;;;;;;;;;;;27.80;38.00;;;;;;5096580;28;19972;-65
2021/01/09 00:09:16;;;;;;;;;;;27.90;38.00;;;;;;5093199;28;19920;-69
2021/01/09 00:11:41;;;;;;;;;;;27.90;38.00;;;;;;5086261;28;20405;-73
2021/01/09 00:14:07;;;;;;;;;;;27.90;38.00;;;;;;5076283;28;19920;-70
2021/01/09 00:16:32;;;;;;;;;;;27.80;37.90;;;;;;5075900;28;19920;-65
2021/01/09 00:18:58;;;;;;;;;;;27.90;37.90;;;;;;5061179;28;20007;-62
2021/01/09 00:21:23;;;;;;;;;;;27.90;38.00;;;;;;5056373;28;19913;-61
2021/01/09 00:23:49;;;;;;;;;;;27.80;37.90;;;;;;5071405;28;19963;-63
2021/01/09 00:26:14;;;;;;;;;;;27.90;37.90;;;;;;5055955;28;19967;-62
2021/01/09 00:28:40;;;;;;;;;;;27.80;37.90;;;;;;5055952;28;19920;-65
2021/01/09 00:31:06;;;;;;;;;;;27.90;38.00;;;;;;5072036;28;20436;-61
2021/01/09 00:33:32;;;;;;;;;;;27.80;37.90;;;;;;5096158;28;20007;-73
2021/01/09 00:35:58;;;;;;;;;;;27.80;38.00;;;;;;5096190;28;19931;-59
2021/01/09 00:38:23;;;;;;;;;;;27.80;37.90;;;;;;5095999;28;20365;-71
2021/01/09 00:40:49;;;;;;;;;;;27.80;38.50;;;;;;5096125;28;19908;-70
2021/01/09 00:43:14;;;;;;;;;;;27.80;38.00;;;;;;5096203;28;19940;-66
2021/01/09 00:45:40;;;;;;;;;;;27.80;38.00;;;;;;5088804;28;19920;-68
2021/01/09 00:48:06;;;;;;;;;;;27.80;38.00;;;;;;5075256;28;19908;-72
2021/01/09 00:50:31;;;;;;;;;;;27.80;37.90;;;;;;5075729;28;19920;-62
2021/01/09 00:52:57;;;;;;;;;;;27.80;37.90;;;;;;5075370;28;19986;-61
2021/01/09 00:55:22;;;;;;;;;;;27.80;37.80;;;;;;5075303;28;19916;-62
2021/01/09 00:57:47;;;;;;;;;;;27.90;37.90;;;;;;5075564;28;20035;-63
2021/01/09 01:00:13;;;;;;;;;;;27.80;37.80;;;;;;5080769;28;19912;-62
2021/01/09 01:02:39;;;;;;;;;;;27.80;37.90;;;;;;5095391;28;20362;-65
2021/01/09 01:05:04;;;;;;;;;;;27.80;37.80;;;;;;5095550;28;19915;-72
2021/01/09 01:07:34;;;;;;;;;;;27.80;37.80;;;;;;5095566;28;19999;-63
2021/01/09 01:10:00;;;;;;;;;;;27.80;37.80;;;;;;5095654;28;19915;-63
2021/01/09 01:12:25;;;;;;;;;;;27.80;37.80;;;;;;5095253;28;19912;-62
2021/01/09 01:14:51;;;;;;;;;;;27.80;37.80;;;;;;5090425;28;19935;-62
2021/01/09 01:17:16;;;;;;;;;;;27.90;37.80;;;;;;5075202;28;20332;-69
2021/01/09 01:19:42;;;;;;;;;;;27.80;37.80;;;;;;5073070;28;19915;-64
2021/01/09 01:22:07;;;;;;;;;;;27.80;37.80;;;;;;5075305;28;19908;-69
2021/01/09 01:24:33;;;;;;;;;;;27.80;37.80;;;;;;5074857;28;20363;-72
2021/01/09 01:26:58;;;;;;;;;;;27.80;37.80;;;;;;5074902;28;19915;-63
2021/01/09 01:29:23;;;;;;;;;;;27.80;37.80;;;;;;5074761;28;19966;-64
2021/01/09 01:31:49;;;;;;;;;;;27.80;37.80;;;;;;5093187;28;20396;-65
2021/01/09 01:34:14;;;;;;;;;;;27.80;37.80;;;;;;5094876;28;19962;-61
2021/01/09 01:36:40;;;;;;;;;;;27.80;37.80;;;;;;5094868;28;20002;-73
2021/01/09 01:39:05;;;;;;;;;;;27.80;37.90;;;;;;5095020;28;19909;-73
2021/01/09 01:41:31;;;;;;;;;;;27.70;37.90;;;;;;5095067;28;20289;-73
2021/01/09 01:43:56;;;;;;;;;;;27.70;37.80;;;;;;5094738;28;19962;-73
2021/01/09 01:46:22;;;;;;;;;;;27.80;37.70;;;;;;5078016;28;19916;-74
2021/01/09 01:48:47;;;;;;;;;;;27.80;37.60;;;;;;5072489;28;20921;-73
2021/01/09 01:51:13;;;;;;;;;;;27.80;37.50;;;;;;5073413;28;19915;-73
2021/01/09 01:53:38;;;;;;;;;;;27.80;37.50;;;;;;5072974;28;19916;-73
2021/01/09 01:56:05;;;;;;;;;;;27.70;37.40;;;;;;5073128;28;19995;-73
2021/01/09 01:58:30;;;;;;;;;;;27.70;37.50;;;;;;5074097;28;19916;-73
2021/01/09 02:00:56;;;;;;;;;;;27.70;37.40;;;;;;5089186;28;19912;-73
2021/01/09 02:03:21;;;;;;;;;;;27.60;37.40;;;;;;5094341;28;20354;-73
2021/01/09 02:06:07;;;;;;;;;;;27.70;37.50;;;;;;5094474;28;19912;-74
2021/01/09 02:08:39;;;;;;;;;;;27.60;37.40;;;;;;5093799;28;19912;-74
2021/01/09 02:11:06;;;;;;;;;;;27.60;37.40;;;;;;5094438;28;20300;-74
2021/01/09 02:13:48;;;;;;;;;;;27.50;37.40;;;;;;5094397;28;19916;-73
2021/01/09 02:16:13;;;;;;;;;;;27.60;37.50;;;;;;5088862;28;19959;-74
2021/01/09 02:18:39;;;;;;;;;;;27.60;37.40;;;;;;5081073;28;19916;-74
2021/01/09 02:21:05;;;;;;;;;;;27.60;37.40;;;;;;5069198;28;20402;-74
2021/01/09 02:23:32;;;;;;;;;;;27.50;37.30;;;;;;5053787;28;20302;-74
2021/01/09 02:25:57;;;;;;;;;;;27.50;37.40;;;;;;5053424;28;19913;-74
2021/01/09 02:28:22;;;;;;;;;;;27.50;37.40;;;;;;5053152;28;19908;-74
2021/01/09 02:30:48;;;;;;;;;;;27.50;37.40;;;;;;5053374;28;19966;-74
2021/01/09 02:33:14;;;;;;;;;;;27.50;37.40;;;;;;5080197;28;19989;-74
2021/01/09 02:35:40;;;;;;;;;;;27.50;37.40;;;;;;5092689;28;20362;-74
2021/01/09 02:38:06;;;;;;;;;;;27.50;37.40;;;;;;5093973;28;19930;-75
2021/01/09 02:40:31;;;;;;;;;;;27.50;37.40;;;;;;5093754;28;19976;-75
2021/01/09 02:42:57;;;;;;;;;;;27.50;37.40;;;;;;5092519;28;20349;-75
2021/01/09 02:45:22;;;;;;;;;;;27.50;38.00;;;;;;5093598;28;19912;-74
2021/01/09 02:47:47;;;;;;;;;;;27.50;37.40;;;;;;5080630;28;19949;-74
2021/01/09 02:50:13;;;;;;;;;;;27.50;37.40;;;;;;5073521;28;20290;-74
2021/01/09 02:52:39;;;;;;;;;;;27.50;37.40;;;;;;5073358;28;19908;-74
2021/01/09 02:55:05;;;;;;;;;;;27.50;37.40;;;;;;5072981;28;19966;-74
2021/01/09 02:57:30;;;;;;;;;;;27.50;37.40;;;;;;5073282;28;19987;-74
2021/01/09 02:59:56;;;;;;;;;;;27.50;37.40;;;;;;5073095;28;19954;-74
2021/01/09 03:02:21;;;;;;;;;;;27.50;37.40;;;;;;5075287;28;19973;-74
2021/01/09 03:04:47;;;;;;;;;;;27.40;37.40;;;;;;5093536;28;20335;-74
2021/01/09 03:07:12;;;;;;;;;;;27.40;37.40;;;;;;5077337;28;19920;-73
2021/01/09 03:09:39;;;;;;;;;;;27.40;37.40;;;;;;5073942;28;19916;-73
2021/01/09 03:12:05;;;;;;;;;;;27.40;37.40;;;;;;5073035;28;19991;-73
2021/01/09 03:14:30;;;;;;;;;;;27.40;37.50;;;;;;5073066;28;20008;-73
2021/01/09 03:16:56;;;;;;;;;;;27.40;37.40;;;;;;5071863;28;20358;-73
2021/01/09 03:19:21;;;;;;;;;;;27.40;37.40;;;;;;5070111;28;19908;-73
2021/01/09 03:21:47;;;;;;;;;;;27.40;37.40;;;;;;5073015;28;19908;-73
2021/01/09 03:24:12;;;;;;;;;;;27.40;37.40;;;;;;5072159;28;19913;-73
2021/01/09 03:26:38;;;;;;;;;;;27.40;37.30;;;;;;5071075;28;20057;-73
2021/01/09 03:29:03;;;;;;;;;;;27.40;37.40;;;;;;5072720;28;19924;-73
2021/01/09 03:31:28;;;;;;;;;;;27.40;37.50;;;;;;5072767;28;20294;-73
2021/01/09 03:33:54;;;;;;;;;;;27.40;37.40;;;;;;5073012;28;19916;-73
2021/01/09 03:36:19;;;;;;;;;;;27.40;37.40;;;;;;5072972;28;20430;-74
2021/01/09 03:38:45;;;;;;;;;;;27.40;37.40;;;;;;5075565;28;20377;-75
2021/01/09 03:41:10;;;;;;;;;;;27.30;37.40;;;;;;5077833;28;19919;-73
2021/01/09 03:43:36;;;;;;;;;;;27.30;37.40;;;;;;5076880;28;19943;-73
2021/01/09 03:46:01;;;;;;;;;;;27.40;37.30;;;;;;5077088;28;19913;-73
2021/01/09 03:48:27;;;;;;;;;;;27.30;37.30;;;;;;5074595;28;19912;-73
2021/01/09 03:50:53;;;;;;;;;;;27.30;37.30;;;;;;5076910;28;19954;-74
2021/01/09 03:53:18;;;;;;;;;;;27.30;37.30;;;;;;5076557;28;19917;-74
2021/01/09 03:55:44;;;;;;;;;;;27.30;37.30;;;;;;5093237;28;19916;-74
2021/01/09 03:58:09;;;;;;;;;;;27.30;37.30;;;;;;5097056;28;19912;-73
2021/01/09 04:00:35;;;;;;;;;;;27.30;37.30;;;;;;5097082;28;19909;-73
2021/01/09 04:03:00;;;;;;;;;;;27.30;37.30;;;;;;5096562;28;19908;-74
2021/01/09 04:05:25;;;;;;;;;;;27.30;37.30;;;;;;5096861;28;19915;-73
2021/01/09 04:07:51;;;;;;;;;;;27.30;37.30;;;;;;5096650;28;20458;-73
2021/01/09 04:10:16;;;;;;;;;;;27.30;37.20;;;;;;5081447;28;19946;-73
2021/01/09 04:12:42;;;;;;;;;;;27.30;37.20;;;;;;5076422;28;19912;-73
2021/01/09 04:15:08;;;;;;;;;;;27.30;37.20;;;;;;5076167;28;19909;-73
2021/01/09 04:17:33;;;;;;;;;;;27.30;37.20;;;;;;5073914;28;19962;-73
2021/01/09 04:19:59;;;;;;;;;;;27.30;37.20;;;;;;5076385;28;19959;-73
2021/01/09 04:22:24;;;;;;;;;;;27.30;37.20;;;;;;5076145;28;19948;-73
2021/01/09 04:24:50;;;;;;;;;;;27.30;37.20;;;;;;5078532;28;19979;-73
2021/01/09 04:27:15;;;;;;;;;;;27.20;37.20;;;;;;5086315;28;19916;-73
2021/01/09 04:29:41;;;;;;;;;;;27.20;37.10;;;;;;5080826;28;19927;-73
2021/01/09 04:32:06;;;;;;;;;;;27.20;37.20;;;;;;5076065;28;19948;-73
2021/01/09 04:34:32;;;;;;;;;;;27.20;37.20;;;;;;5075939;28;19920;-73
2021/01/09 04:36:57;;;;;;;;;;;27.30;37.30;;;;;;5075747;28;19909;-73
2021/01/09 04:39:23;;;;;;;;;;;27.30;37.20;;;;;;5075895;28;19908;-73
2021/01/09 04:41:48;;;;;;;;;;;27.20;37.10;;;;;;5075665;28;20323;-73
2021/01/09 04:44:14;;;;;;;;;;;27.20;37.20;;;;;;5088364;28;20370;-73
2021/01/09 04:46:50;;;;;;;;;;;27.20;37.10;;;;;;5093039;28;19908;-73
2021/01/09 04:49:16;;;;;;;;;;;27.20;37.10;;;;;;5075131;28;19916;-73
2021/01/09 04:51:41;;;;;;;;;;;27.20;37.10;;;;;;5075837;28;19909;-73
2021/01/09 04:54:07;;;;;;;;;;;27.30;37.20;;;;;;5075687;28;20304;-73
2021/01/09 04:56:33;;;;;;;;;;;27.20;37.10;;;;;;5075486;28;19909;-73
2021/01/09 04:58:58;;;;;;;;;;;27.20;37.20;;;;;;5091184;28;20274;-73
2021/01/09 05:01:24;;;;;;;;;;;27.20;37.20;;;;;;5091330;28;19969;-73
2021/01/09 05:03:49;;;;;;;;;;;27.20;37.10;;;;;;5076664;28;19915;-73
2021/01/09 05:06:21;;;;;;;;;;;27.20;37.10;;;;;;5095727;28;19919;-74
2021/01/09 05:08:46;;;;;;;;;;;27.20;37.10;;;;;;5089591;28;19916;-73
2021/01/09 05:11:12;;;;;;;;;;;27.20;37.10;;;;;;5075279;28;19913;-74
2021/01/09 05:13:37;;;;;;;;;;;27.20;37.10;;;;;;5074940;28;19920;-73
2021/01/09 05:16:03;;;;;;;;;;;27.20;37.00;;;;;;5075322;28;20397;-73
2021/01/09 05:18:30;;;;;;;;;;;27.20;37.10;;;;;;5073139;28;19954;-73
2021/01/09 05:20:57;;;;;;;;;;;27.20;37.00;;;;;;5075345;28;19916;-73
2021/01/09 05:23:23;;;;;;;;;;;27.20;37.10;;;;;;5090483;28;20281;-74
2021/01/09 05:25:48;;;;;;;;;;;27.20;37.00;;;;;;5090487;28;19916;-73
2021/01/09 05:28:14;;;;;;;;;;;27.20;37.10;;;;;;5090330;28;19977;-73
2021/01/09 05:30:40;;;;;;;;;;;27.20;37.10;;;;;;5074601;28;20332;-73
2021/01/09 05:33:06;;;;;;;;;;;27.20;37.10;;;;;;5074611;28;19920;-73
2021/01/09 05:35:31;;;;;;;;;;;27.20;37.10;;;;;;5089837;28;19960;-73
2021/01/09 05:37:57;;;;;;;;;;;27.20;37.00;;;;;;5075576;28;19917;-73
2021/01/09 05:40:22;;;;;;;;;;;27.20;37.10;;;;;;5074723;28;20321;-73
2021/01/09 05:42:50;;;;;;;;;;;27.20;37.10;;;;;;5074682;28;19908;-73
2021/01/09 05:45:15;;;;;;;;;;;27.20;37.10;;;;;;5090132;28;19915;-73
2021/01/09 05:47:41;;;;;;;;;;;27.20;37.10;;;;;;5087908;28;20000;-73
2021/01/09 05:50:07;;;;;;;;;;;27.20;37.10;;;;;;5073377;28;20351;-73
2021/01/09 05:52:38;;;;;;;;;;;27.20;37.00;;;;;;5091851;28;19951;-73
2021/01/09 05:55:04;;;;;;;;;;;27.20;37.00;;;;;;5082931;28;20432;-73
2021/01/09 05:57:33;;;;;;;;;;;27.20;37.00;;;;;;5074388;28;19913;-73
2021/01/09 05:59:59;;;;;;;;;;;27.10;37.00;;;;;;5074388;28;20003;-73
2021/01/09 06:02:25;;;;;;;;;;;27.10;36.90;;;;;;5074315;28;19908;-73
2021/01/09 06:04:51;;;;;;;;;;;27.20;37.00;;;;;;5074074;28;19961;-74
2021/01/09 06:07:20;;;;;;;;;;;27.20;37.00;;;;;;5089777;28;19966;-74
2021/01/09 06:10:05;;;;;;;;;;;27.20;37.10;;;;;;5084270;28;19916;-74
2021/01/09 06:12:31;;;;;;;;;;;27.10;37.00;;;;;;5086533;28;19915;-74
2021/01/09 06:14:57;;;;;;;;;;;27.10;37.00;;;;;;5092938;28;20290;-74
2021/01/09 06:17:22;;;;;;;;;;;27.20;37.00;;;;;;5083809;28;19915;-73
2021/01/09 06:19:48;;;;;;;;;;;27.10;36.90;;;;;;5079530;28;19957;-73
2021/01/09 06:22:13;;;;;;;;;;;27.10;36.90;;;;;;5093880;28;19915;-73
2021/01/09 06:24:39;;;;;;;;;;;27.10;36.90;;;;;;5094237;28;19908;-73
2021/01/09 06:27:05;;;;;;;;;;;27.10;36.90;;;;;;5094070;28;19908;-73
2021/01/09 06:29:31;;;;;;;;;;;27.10;36.90;;;;;;5093889;28;19920;-72
2021/01/09 06:31:57;;;;;;;;;;;27.10;36.90;;;;;;5092936;28;20583;-73
2021/01/09 06:34:23;;;;;;;;;;;27.10;36.90;;;;;;5088518;28;19935;-73
2021/01/09 06:36:56;;;;;;;;;;;27.10;36.90;;;;;;5064731;28;20003;-73
2021/01/09 06:39:22;;;;;;;;;;;27.00;36.90;;;;;;5053706;28;19913;-73
2021/01/09 06:41:48;;;;;;;;;;;27.10;36.90;;;;;;5053639;28;19920;-73
2021/01/09 06:44:14;;;;;;;;;;;27.10;36.90;;;;;;5068630;28;20274;-73
2021/01/09 06:46:41;;;;;;;;;;;27.10;36.90;;;;;;5054620;28;19912;-73
2021/01/09 06:49:14;;;;;;;;;;;27.10;36.90;;;;;;5072444;28;19909;-73
2021/01/09 06:51:40;;;;;;;;;;;27.10;36.90;;;;;;5093358;28;20404;-73
2021/01/09 06:54:14;;;;;;;;;;;27.10;36.90;;;;;;5093288;28;19959;-73
2021/01/09 06:56:43;;;;;;;;;;;27.10;36.90;;;;;;5093458;28;19931;-73
2021/01/09 06:59:08;;;;;;;;;;;27.00;36.90;;;;;;5093709;28;19915;-73
2021/01/09 07:01:37;;;;;;;;;;;27.00;36.90;;;;;;5093395;28;19908;-73
2021/01/09 07:04:03;;;;;;;;;;;27.10;36.90;;;;;;5092057;28;19916;-73
2021/01/09 07:06:54;;;;;;;;;;;27.00;36.80;;;;;;5088960;28;19915;-72
2021/01/09 07:09:27;;;;;;;;;;;27.00;36.90;;;;;;5072956;28;20293;-72
2021/01/09 07:11:53;;;;;;;;;;;27.00;36.90;;;;;;5073196;28;19916;-73
2021/01/09 07:14:19;;;;;;;;;;;27.10;36.90;;;;;;5087954;28;20252;-73
2021/01/09 07:16:44;;;;;;;;;;;27.00;36.80;;;;;;5071910;28;20358;-73
2021/01/09 07:19:10;;;;;;;;;;;27.00;36.80;;;;;;5076424;28;19916;-73
2021/01/09 07:21:36;;;;;;;;;;;27.00;36.80;;;;;;5091772;28;19910;-73
2021/01/09 07:24:01;;;;;;;;;;;27.00;36.80;;;;;;5091955;28;19943;-73
2021/01/09 07:26:27;;;;;;;;;;;27.00;36.90;;;;;;5078444;28;20290;-73
2021/01/09 07:28:52;;;;;;;;;;;27.00;36.80;;;;;;5088574;28;19912;-72
2021/01/09 07:31:20;;;;;;;;;;;27.00;36.90;;;;;;5073062;28;20267;-73
2021/01/09 07:33:46;;;;;;;;;;;27.00;36.80;;;;;;5088186;28;20286;-73
2021/01/09 07:36:14;;;;;;;;;;;27.00;36.80;;;;;;5088534;28;19909;-73
2021/01/09 07:38:46;;;;;;;;;;;27.00;36.80;;;;;;5088220;28;19944;-73
2021/01/09 07:41:29;;;;;;;;;;;27.00;36.80;;;;;;5075158;28;19924;-73
2021/01/09 07:43:55;;;;;;;;;;;27.00;36.80;;;;;;5091766;28;19948;-72
2021/01/09 07:46:20;;;;;;;;;;;27.00;36.80;;;;;;5091444;28;19909;-73
2021/01/09 07:48:46;;;;;;;;;;;27.00;36.80;;;;;;5071599;28;19909;-73
2021/01/09 07:51:11;;;;;;;;;;;27.00;36.80;;;;;;5070448;28;19909;-73
2021/01/09 07:53:37;;;;;;;;;;;27.00;36.90;;;;;;5071287;28;20390;-73
2021/01/09 07:56:02;;;;;;;;;;;26.90;36.80;;;;;;5079709;28;19923;-73
2021/01/09 07:58:43;;;;;;;;;;;27.00;36.80;;;;;;5091710;28;19973;-73
2021/01/09 08:01:09;;;;;;;;;;;27.00;36.90;;;;;;5092648;28;19912;-73
2021/01/09 08:03:34;;;;;;;;;;;27.00;36.80;;;;;;5092580;28;19910;-72
2021/01/09 08:06:00;;;;;;;;;;;26.90;36.80;;;;;;5091745;28;19915;-73
2021/01/09 08:08:26;;;;;;;;;;;26.90;36.90;;;;;;5092512;28;19908;-73
2021/01/09 08:10:51;;;;;;;;;;;26.90;36.90;;;;;;5083161;28;19912;-73
2021/01/09 08:13:17;;;;;;;;;;;26.90;36.80;;;;;;5072280;28;20355;-73
2021/01/09 08:15:42;;;;;;;;;;;27.00;36.90;;;;;;5072398;28;19913;-73
2021/01/09 08:18:09;;;;;;;;;;;27.00;36.80;;;;;;5071128;28;19909;-73
2021/01/09 08:20:34;;;;;;;;;;;27.00;36.80;;;;;;5072363;28;19913;-73
2021/01/09 08:23:00;;;;;;;;;;;27.00;36.80;;;;;;5072023;28;19923;-75
2021/01/09 08:25:29;;;;;;;;;;;27.00;36.80;;;;;;5080929;28;20384;-73
2021/01/09 08:27:55;;;;;;;;;;;27.00;37.40;;;;;;5084085;28;19916;-73
2021/01/09 08:30:24;;;;;;;;;;;27.00;36.80;;;;;;5076672;28;19942;-73
2021/01/09 08:32:49;;;;;;;;;;;27.00;36.80;;;;;;5096239;28;20458;-73
2021/01/09 08:35:15;;;;;;;;;;;27.00;36.80;;;;;;5096019;28;19934;-73
2021/01/09 08:37:41;;;;;;;;;;;27.00;36.80;;;;;;5096138;28;20412;-73
2021/01/09 08:40:13;;;;;;;;;;;27.00;36.80;;;;;;5095811;28;19908;-72
2021/01/09 08:42:50;;;;;;;;;;;26.90;36.80;;;;;;5096153;28;19916;-72
2021/01/09 08:45:15;;;;;;;;;;;27.00;36.80;;;;;;5093594;28;20277;-72
2021/01/09 08:47:43;;;;;;;;;;;27.00;36.80;;;;;;5077190;28;19999;-72
2021/01/09 08:50:09;;;;;;;;;;;27.00;36.80;;;;;;5075459;28;20370;-72
2021/01/09 08:52:34;;;;;;;;;;;26.90;36.80;;;;;;5074097;28;19961;-72
2021/01/09 08:55:00;;;;;;;;;;;27.00;36.80;;;;;;5073945;28;19924;-72
2021/01/09 08:57:25;;;;;;;;;;;27.00;36.80;;;;;;5073962;28;19915;-72
2021/01/09 08:59:51;;;;;;;;;;;26.90;36.80;;;;;;5074014;28;19908;-72
2021/01/09 09:02:18;;;;;;;;;;;27.00;36.80;;;;;;5079581;28;20327;-72
2021/01/09 09:04:44;;;;;;;;;;;27.00;36.70;;;;;;5094515;28;19916;-73
2021/01/09 09:07:09;;;;;;;;;;;27.00;36.70;;;;;;5094399;28;19931;-72
2021/01/09 09:09:37;;;;;;;;;;;27.00;36.70;;;;;;5095554;28;19912;-73
2021/01/09 09:12:02;;;;;;;;;;;27.00;36.80;;;;;;5093936;28;19912;-72
2021/01/09 09:14:28;;;;;;;;;;;26.90;36.70;;;;;;5095430;28;19916;-73
2021/01/09 09:17:00;;;;;;;;;;;26.90;36.70;;;;;;5078901;28;19999;-72
2021/01/09 09:19:26;;;;;;;;;;;27.00;36.80;;;;;;5074901;28;20406;-72
2021/01/09 09:21:58;;;;;;;;;;;27.00;36.70;;;;;;5075115;28;19997;-72
2021/01/09 09:24:42;;;;;;;;;;;27.00;36.70;;;;;;5075030;28;19909;-72
2021/01/09 09:27:23;;;;;;;;;;;27.00;36.70;;;;;;5074639;28;20371;-72
2021/01/09 09:29:49;;;;;;;;;;;27.00;36.70;;;;;;5074432;28;19927;-73
2021/01/09 09:32:21;;;;;;;;;;;27.00;36.80;;;;;;5094988;28;19916;-73
2021/01/09 09:34:46;;;;;;;;;;;27.00;36.80;;;;;;5082514;28;20283;-73
2021/01/09 09:37:12;;;;;;;;;;;27.00;36.70;;;;;;5074426;28;19923;-72
2021/01/09 09:39:37;;;;;;;;;;;27.00;36.70;;;;;;5074788;28;20003;-73
2021/01/09 09:42:03;;;;;;;;;;;27.00;36.60;;;;;;5074434;28;19909;-73
2021/01/09 09:44:38;;;;;;;;;;;27.00;36.70;;;;;;5074456;28;19908;-73
2021/01/09 09:47:04;;;;;;;;;;;27.00;36.60;;;;;;5077627;28;20385;-72
2021/01/09 09:49:30;;;;;;;;;;;27.00;36.60;;;;;;5074817;28;20236;-72
2021/01/09 09:51:56;;;;;;;;;;;27.00;36.60;;;;;;5074406;28;19920;-73
2021/01/09 09:54:28;;;;;;;;;;;27.00;36.60;;;;;;5073373;28;19920;-72
2021/01/09 09:56:54;;;;;;;;;;;27.00;36.60;;;;;;5074517;28;19916;-72
2021/01/09 09:59:19;;;;;;;;;;;27.00;36.60;;;;;;5074143;28;19912;-73
2021/01/09 10:01:44;;;;;;;;;;;27.00;36.60;;;;;;5072592;28;19909;-72
2021/01/09 10:04:19;;;;;;;;;;;27.00;36.60;;;;;;5081620;28;20428;-72
2021/01/09 10:06:44;;;;;;;;;;;27.00;36.60;;;;;;5089673;28;19909;-72
2021/01/09 10:09:19;;;;;;;;;;;27.00;36.60;;;;;;5074280;28;19908;-71
2021/01/09 10:11:45;;;;;;;;;;;27.00;36.60;;;;;;5074210;28;19950;-71
2021/01/09 10:14:11;;;;;;;;;;;27.00;36.70;;;;;;5074181;28;19962;-71
2021/01/09 10:16:36;;;;;;;;;;;27.10;36.60;;;;;;5073490;28;19912;-72
2021/01/09 10:19:03;;;;;;;;;;;27.10;36.70;;;;;;5084858;28;20432;-72
2021/01/09 10:21:31;;;;;;;;;;;27.10;36.60;;;;;;5093357;28;19912;-72
2021/01/09 10:23:57;;;;;;;;;;;27.10;36.70;;;;;;5093754;28;19923;-72
2021/01/09 10:26:26;;;;;;;;;;;27.10;36.70;;;;;;5093779;28;20421;-72
2021/01/09 10:28:51;;;;;;;;;;;27.10;36.70;;;;;;5091003;28;19955;-72
2021/01/09 10:31:17;;;;;;;;;;;27.00;36.60;;;;;;5080033;28;20383;-71
2021/01/09 10:33:42;;;;;;;;;;;27.10;36.80;;;;;;5079674;28;20345;-72
2021/01/09 10:36:08;;;;;;;;;;;27.00;36.70;;;;;;5093682;28;19923;-71
2021/01/09 10:38:33;;;;;;;;;;;27.00;36.80;;;;;;5093707;28;19998;-71
2021/01/09 10:40:59;;;;;;;;;;;27.00;36.90;;;;;;5093576;28;19915;-72
2021/01/09 10:43:24;;;;;;;;;;;27.10;37.00;;;;;;5093803;28;19931;-72
2021/01/09 10:45:49;;;;;;;;;;;27.00;36.80;;;;;;5093362;28;19915;-72
2021/01/09 10:48:15;;;;;;;;;;;27.00;36.90;;;;;;5079182;28;19908;-72
2021/01/09 10:50:41;;;;;;;;;;;27.10;37.00;;;;;;5083707;28;20325;-72
2021/01/09 10:53:06;;;;;;;;;;;27.00;37.20;;;;;;5073087;28;19931;-71
2021/01/09 10:55:34;;;;;;;;;;;27.10;40.80;;;;;;5073099;28;20008;-72
2021/01/09 10:57:59;;;;;;;;;;;27.10;42.10;;;;;;5079446;28;19912;-72
2021/01/09 11:00:25;;;;;;;;;;;27.10;42.90;;;;;;5090437;28;19931;-70
2021/01/09 11:02:50;;;;;;;;;;;27.20;43.60;;;;;;5073216;28;19916;-72
2021/01/09 11:05:16;;;;;;;;;;;27.20;43.80;;;;;;5073115;28;20424;-74
2021/01/09 11:07:41;;;;;;;;;;;27.20;44.10;;;;;;5073226;28;19996;-75
2021/01/09 11:10:07;;;;;;;;;;;27.20;44.40;;;;;;5073960;28;20020;-74
2021/01/09 11:12:32;;;;;;;;;;;27.20;44.20;;;;;;5073192;28;20328;-73
2021/01/09 11:14:58;;;;;;;;;;;27.20;44.00;;;;;;5073095;28;19967;-73
2021/01/09 11:17:23;;;;;;;;;;;27.20;43.80;;;;;;5072553;28;19978;-73
2021/01/09 11:19:49;;;;;;;;;;;27.20;43.70;;;;;;5072868;28;19931;-73
2021/01/09 11:22:14;;;;;;;;;;;27.20;43.50;;;;;;5073016;28;19991;-73
2021/01/09 11:24:40;;;;;;;;;;;27.20;43.50;;;;;;5072916;28;19909;-74
2021/01/09 11:27:05;;;;;;;;;;;27.20;43.40;;;;;;5072658;28;20358;-72
2021/01/09 11:29:31;;;;;;;;;;;27.20;43.00;;;;;;5072512;28;19995;-71
2021/01/09 11:31:59;;;;;;;;;;;27.20;43.20;;;;;;5079453;28;19916;-72
2021/01/09 11:34:25;;;;;;;;;;;27.30;43.00;;;;;;5092777;28;20366;-70
2021/01/09 11:36:50;;;;;;;;;;;27.30;43.20;;;;;;5092865;28;19909;-71
2021/01/09 11:39:16;;;;;;;;;;;27.20;43.20;;;;;;5093053;28;20346;-71
2021/01/09 11:41:41;;;;;;;;;;;27.30;43.30;;;;;;5092728;28;19908;-71
2021/01/09 11:44:07;;;;;;;;;;;27.30;43.40;;;;;;5092763;28;19908;-74
2021/01/09 11:46:32;;;;;;;;;;;27.20;43.00;;;;;;5088001;28;19916;-75
2021/01/09 11:48:58;;;;;;;;;;;27.20;43.10;;;;;;5071456;28;20364;-76
2021/01/09 11:51:23;;;;;;;;;;;27.20;43.00;;;;;;5072485;28;19916;-75
2021/01/09 11:53:49;;;;;;;;;;;27.30;42.90;;;;;;5072619;28;19916;-75
2021/01/09 11:56:18;;;;;;;;;;;27.20;42.80;;;;;;5072462;28;19915;-73
2021/01/09 11:58:43;;;;;;;;;;;27.30;42.70;;;;;;5073472;28;19913;-74
2021/01/09 12:01:09;;;;;;;;;;;27.30;42.60;;;;;;5080958;28;20397;-66
2021/01/09 12:03:34;;;;;;;;;;;27.20;43.20;;;;;;5087362;28;19965;-61
2021/01/09 12:06:00;;;;;;;;;;;27.20;43.20;;;;;;5096866;28;19974;-62
2021/01/09 12:08:25;;;;;;;;;;;27.20;43.20;;;;;;5096511;28;20014;-62
2021/01/09 12:10:51;;;;;;;;;;;27.30;43.10;;;;;;5095261;28;19908;-63
2021/01/09 12:13:16;;;;;;;;;;;27.40;43.00;;;;;;5096351;28;19923;-62
2021/01/09 12:15:45;;;;;;;;;;;27.40;42.90;;;;;;5096715;28;19983;-63
2021/01/09 12:18:10;;;;;;;;;;;27.50;42.90;;;;;;5080545;28;20027;-63
2021/01/09 12:20:36;;;;;;;;;;;27.50;42.60;;;;;;5076101;28;20414;-69
2021/01/09 12:23:02;;;;;;;;;;;27.50;42.70;;;;;;5076013;28;19915;-67
2021/01/09 12:25:27;;;;;;;;;;;27.40;43.20;;;;;;5075949;28;19908;-64
2021/01/09 12:27:53;;;;;;;;;;;27.40;42.60;;;;;;5075874;28;19913;-59
2021/01/09 12:30:18;;;;;;;;;;;27.40;42.70;;;;;;5075802;28;20673;-72
2021/01/09 12:32:44;;;;;;;;;;;27.40;42.70;;;;;;5093172;28;19923;-77
2021/01/09 12:35:10;;;;;;;;;;;27.40;42.50;;;;;;5096205;28;19959;-77
2021/01/09 12:37:35;;;;;;;;;;;27.40;42.30;;;;;;5096292;28;19968;-77
2021/01/09 12:40:03;;;;;;;;;;;27.40;42.20;;;;;;5095669;28;20237;-77
2021/01/09 12:42:28;;;;;;;;;;;27.40;42.10;;;;;;5096207;28;19908;-77
2021/01/09 12:44:54;;;;;;;;;;;27.40;42.10;;;;;;5096259;28;20395;-77
2021/01/09 12:47:19;;;;;;;;;;;27.40;42.00;;;;;;5078527;28;19924;-77
2021/01/09 12:49:45;;;;;;;;;;;27.40;41.90;;;;;;5073468;28;19958;-77
2021/01/09 12:52:10;;;;;;;;;;;27.40;41.80;;;;;;5075566;28;20389;-76
2021/01/09 12:54:36;;;;;;;;;;;27.40;41.90;;;;;;5075639;28;19952;-76
2021/01/09 12:57:01;;;;;;;;;;;27.40;41.90;;;;;;5075684;28;20211;-77
2021/01/09 12:59:26;;;;;;;;;;;27.40;41.80;;;;;;5075417;28;19909;-76
2021/01/09 13:01:54;;;;;;;;;;;27.40;41.80;;;;;;5088794;28;19916;-77
2021/01/09 13:04:20;;;;;;;;;;;27.40;41.80;;;;;;5082138;28;19912;-76
2021/01/09 13:06:47;;;;;;;;;;;27.30;41.80;;;;;;5078721;28;20262;-77
2021/01/09 13:09:13;;;;;;;;;;;27.30;42.40;;;;;;5075195;28;20329;-77
2021/01/09 13:11:38;;;;;;;;;;;27.30;41.80;;;;;;5074741;28;20282;-76
2021/01/09 13:14:05;;;;;;;;;;;27.30;41.70;;;;;;5075012;28;19916;-76
2021/01/09 13:16:30;;;;;;;;;;;27.30;41.70;;;;;;5075129;28;19919;-77
2021/01/09 13:18:56;;;;;;;;;;;27.30;41.70;;;;;;5075382;28;19913;-76
2021/01/09 13:21:21;;;;;;;;;;;27.30;41.70;;;;;;5074146;28;20430;-77
2021/01/09 13:23:46;;;;;;;;;;;27.30;41.70;;;;;;5075042;28;19909;-76
2021/01/09 13:26:12;;;;;;;;;;;27.30;41.70;;;;;;5075111;28;19913;-78
2021/01/09 13:28:38;;;;;;;;;;;27.30;41.70;;;;;;5075050;28;20370;-77
2021/01/09 13:31:03;;;;;;;;;;;27.30;41.70;;;;;;5074907;28;20370;-77
2021/01/09 13:33:29;;;;;;;;;;;27.30;41.70;;;;;;5074758;28;19920;-77
2021/01/09 13:35:57;;;;;;;;;;;27.30;41.60;;;;;;5074795;28;20381;-76
2021/01/09 13:38:22;;;;;;;;;;;27.30;41.60;;;;;;5075088;28;19923;-77
2021/01/09 13:40:48;;;;;;;;;;;27.30;41.70;;;;;;5075015;28;20320;-77
2021/01/09 13:43:14;;;;;;;;;;;27.30;41.60;;;;;;5059024;28;19917;-76
2021/01/09 13:45:39;;;;;;;;;;;27.30;41.60;;;;;;5070064;28;19909;-75
2021/01/09 13:48:06;;;;;;;;;;;27.30;41.60;;;;;;5089960;28;19915;-75
2021/01/09 13:50:31;;;;;;;;;;;27.30;41.50;;;;;;5094693;28;19923;-76
2021/01/09 13:52:57;;;;;;;;;;;27.30;41.60;;;;;;5094757;28;19912;-77
2021/01/09 13:55:22;;;;;;;;;;;27.30;41.60;;;;;;5094859;28;20370;-75
2021/01/09 13:57:48;;;;;;;;;;;27.30;41.50;;;;;;5094499;28;19908;-77
2021/01/09 14:00:14;;;;;;;;;;;27.30;41.50;;;;;;5094946;28;19908;-77
2021/01/09 14:02:43;;;;;;;;;;;27.30;41.50;;;;;;5093939;28;19915;-78
2021/01/09 14:05:09;;;;;;;;;;;27.30;41.50;;;;;;5094413;28;20312;-76
2021/01/09 14:07:34;;;;;;;;;;;27.30;41.50;;;;;;5094496;28;19913;-76
2021/01/09 14:10:00;;;;;;;;;;;27.30;41.30;;;;;;5094613;28;19961;-76
2021/01/09 14:12:26;;;;;;;;;;;27.30;41.30;;;;;;5094377;28;20370;-76